Amethyst — UDTS — position and weather

sailwx.info

Track history (hours):
 
Tides and Currents Weather Stations Pressure Air Temp Water Temp Dewpoint Dewpoint Depression Visibility Wind Speed Wind Dir Waves Ship Positions

Amethyst

Last reported at 2017-Nov-12 18:56 UTC. Time now 2017-Nov-18 17:54 UTC.
Position N 45°15' E 036°28'.

Length 108 m; draft 3.6 m.

Type: Cargo ship. MMSI: 273445370.

Date/timePositionNaut miles runAvg speedWind from/ knotsBaromVisibWave heightAir tempDewpointWater temp
2017-Nov-12 18:56N 45°15' E 036°28'3 6.5
2017-Nov-12 18:30N 45°18' E 036°29'3 7.0
2017-Nov-12 18:01N 45°19' E 036°33'3 6.9
2017-Nov-12 17:30N 45°21' E 036°38'3 5.5
2017-Nov-12 17:01N 45°23' E 036°40'3 6.0
2017-Nov-12 16:31N 45°26' E 036°41'2 4.7
2017-Nov-12 16:01N 45°28' E 036°40'0 0.1
2017-Nov-12 15:30N 45°28' E 036°40'0 0.0
2017-Nov-12 14:57N 45°28' E 036°40'0 0.0
2017-Nov-12 14:28N 45°28' E 036°40'0 0.0
2017-Nov-12 13:58N 45°28' E 036°40'0 0.0
2017-Nov-12 13:28N 45°28' E 036°40'0 0.0
2017-Nov-12 12:59N 45°28' E 036°40'0 0.0
2017-Nov-12 12:29N 45°28' E 036°40'0 0.0
2017-Nov-12 11:59N 45°28' E 036°40'0 0.0
2017-Nov-12 11:27N 45°28' E 036°40'0 0.0
2017-Nov-12 10:57N 45°28' E 036°40'0 0.0
2017-Nov-12 10:30N 45°28' E 036°40'0 0.0
2017-Nov-12 09:58N 45°28' E 036°40'0 0.0
2017-Nov-12 09:28N 45°28' E 036°39'0 0.0
2017-Nov-12 08:58N 45°28' E 036°39'0 0.0
2017-Nov-12 08:26N 45°28' E 036°40'0 0.0
2017-Nov-12 07:56N 45°28' E 036°40'1 3.4
2017-Nov-12 07:31N 45°29' E 036°41'4 7.2
2017-Nov-12 06:58N 45°32' E 036°45'  
2017-Nov-04 12:43N 45°33' E 036°46'2 8.0
2017-Nov-04 12:28N 45°31' E 036°45'4 8.0
2017-Nov-04 12:01N 45°28' E 036°42'4 7.7
2017-Nov-04 11:31N 45°24' E 036°41'3 6.5
2017-Nov-04 11:00N 45°21' E 036°39'4 7.1
2017-Nov-04 10:31N 45°20' E 036°34'4 7.6
2017-Nov-04 10:00N 45°18' E 036°29'3 5.5
2017-Nov-04 09:30N 45°15' E 036°29'3 6.0
2017-Nov-04 09:00N 45°13' E 036°30'1 2.6
2017-Nov-04 08:31N 45°12' E 036°31'0 0.2
2017-Nov-04 05:23N 45°11' E 036°31'2 4.3
2017-Nov-04 04:54N 45°09' E 036°30'3 7.4
2017-Nov-04 04:31N 45°06' E 036°30'  
Track history (hours):
 
Tides and Currents Weather Stations Pressure Air Temp Water Temp Dewpoint Dewpoint Depression Visibility Wind Speed Wind Dir Waves Ship Positions

Amethyst

Last reported at 2017-Nov-12 18:56 UTC. Time now 2017-Nov-18 17:54 UTC.
Position N 45°15' E 036°28'.

Length 108 m; draft 3.6 m.

Type: Cargo ship. MMSI: 273445370.

Date/timePositionNaut miles runAvg speedWind from/ knotsBaromVisibWave heightAir tempDewpointWater temp
2017-Nov-12 18:56N 45°15' E 036°28'3 6.5
2017-Nov-12 18:30N 45°18' E 036°29'3 7.0
2017-Nov-12 18:01N 45°19' E 036°33'3 6.9
2017-Nov-12 17:30N 45°21' E 036°38'3 5.5
2017-Nov-12 17:01N 45°23' E 036°40'3 6.0
2017-Nov-12 16:31N 45°26' E 036°41'2 4.7
2017-Nov-12 16:01N 45°28' E 036°40'0 0.1
2017-Nov-12 15:30N 45°28' E 036°40'0 0.0
2017-Nov-12 14:57N 45°28' E 036°40'0 0.0
2017-Nov-12 14:28N 45°28' E 036°40'0 0.0
2017-Nov-12 13:58N 45°28' E 036°40'0 0.0
2017-Nov-12 13:28N 45°28' E 036°40'0 0.0
2017-Nov-12 12:59N 45°28' E 036°40'0 0.0
2017-Nov-12 12:29N 45°28' E 036°40'0 0.0
2017-Nov-12 11:59N 45°28' E 036°40'0 0.0
2017-Nov-12 11:27N 45°28' E 036°40'0 0.0
2017-Nov-12 10:57N 45°28' E 036°40'0 0.0
2017-Nov-12 10:30N 45°28' E 036°40'0 0.0
2017-Nov-12 09:58N 45°28' E 036°40'0 0.0
2017-Nov-12 09:28N 45°28' E 036°39'0 0.0
2017-Nov-12 08:58N 45°28' E 036°39'0 0.0
2017-Nov-12 08:26N 45°28' E 036°40'0 0.0
2017-Nov-12 07:56N 45°28' E 036°40'1 3.4
2017-Nov-12 07:31N 45°29' E 036°41'4 7.2
2017-Nov-12 06:58N 45°32' E 036°45'  
2017-Nov-04 12:43N 45°33' E 036°46'2 8.0
2017-Nov-04 12:28N 45°31' E 036°45'4 8.0
2017-Nov-04 12:01N 45°28' E 036°42'4 7.7
2017-Nov-04 11:31N 45°24' E 036°41'3 6.5
2017-Nov-04 11:00N 45°21' E 036°39'4 7.1
2017-Nov-04 10:31N 45°20' E 036°34'4 7.6
2017-Nov-04 10:00N 45°18' E 036°29'3 5.5
2017-Nov-04 09:30N 45°15' E 036°29'3 6.0
2017-Nov-04 09:00N 45°13' E 036°30'1 2.6
2017-Nov-04 08:31N 45°12' E 036°31'0 0.2
2017-Nov-04 05:23N 45°11' E 036°31'2 4.3
2017-Nov-04 04:54N 45°09' E 036°30'3 7.4
2017-Nov-04 04:31N 45°06' E 036°30'  

Dump ship's entire track history